sensor_id;sensor_type;location;lat;lon;timestamp;P1;durP1;ratioP1;P2;durP2;ratioP2
30247;SDS011;17063;50.892;4.702;2022-08-20T00:02:08;5.37;;;4.10;;
30247;SDS011;17063;50.892;4.702;2022-08-20T00:04:35;10.13;;;4.10;;
30247;SDS011;17063;50.892;4.702;2022-08-20T00:07:05;5.77;;;4.10;;
30247;SDS011;17063;50.892;4.702;2022-08-20T00:09:32;7.47;;;3.90;;
30247;SDS011;17063;50.892;4.702;2022-08-20T00:12:03;8.47;;;4.47;;
30247;SDS011;17063;50.892;4.702;2022-08-20T00:14:31;8.17;;;4.33;;
30247;SDS011;17063;50.892;4.702;2022-08-20T00:17:03;5.77;;;4.17;;
30247;SDS011;17063;50.892;4.702;2022-08-20T00:19:31;7.43;;;3.80;;
30247;SDS011;17063;50.892;4.702;2022-08-20T00:21:58;6.77;;;4.07;;
30247;SDS011;17063;50.892;4.702;2022-08-20T00:24:24;4.90;;;3.77;;
30247;SDS011;17063;50.892;4.702;2022-08-20T00:26:51;5.73;;;3.73;;
30247;SDS011;17063;50.892;4.702;2022-08-20T00:29:18;5.67;;;3.57;;
30247;SDS011;17063;50.892;4.702;2022-08-20T00:31:48;4.33;;;3.70;;
30247;SDS011;17063;50.892;4.702;2022-08-20T00:34:15;7.00;;;4.10;;
30247;SDS011;17063;50.892;4.702;2022-08-20T00:36:42;5.77;;;3.80;;
30247;SDS011;17063;50.892;4.702;2022-08-20T00:39:09;6.13;;;4.10;;
30247;SDS011;17063;50.892;4.702;2022-08-20T00:41:36;3.97;;;3.47;;
30247;SDS011;17063;50.892;4.702;2022-08-20T00:46:41;6.67;;;4.37;;
30247;SDS011;17063;50.892;4.702;2022-08-20T00:49:11;6.03;;;4.13;;
30247;SDS011;17063;50.892;4.702;2022-08-20T00:51:44;6.37;;;3.77;;
30247;SDS011;17063;50.892;4.702;2022-08-20T00:54:15;5.00;;;4.20;;
30247;SDS011;17063;50.892;4.702;2022-08-20T00:56:46;7.67;;;4.13;;
30247;SDS011;17063;50.892;4.702;2022-08-20T00:59:17;6.20;;;3.70;;
30247;SDS011;17063;50.892;4.702;2022-08-20T01:01:48;7.63;;;3.60;;
30247;SDS011;17063;50.892;4.702;2022-08-20T01:04:22;6.47;;;3.83;;
30247;SDS011;17063;50.892;4.702;2022-08-20T01:06:52;9.13;;;3.63;;
30247;SDS011;17063;50.892;4.702;2022-08-20T01:09:19;8.87;;;3.73;;
30247;SDS011;17063;50.892;4.702;2022-08-20T01:12:06;6.37;;;3.90;;
30247;SDS011;17063;50.892;4.702;2022-08-20T01:14:34;7.97;;;3.50;;
30247;SDS011;17063;50.892;4.702;2022-08-20T01:17:02;9.60;;;3.67;;
30247;SDS011;17063;50.892;4.702;2022-08-20T01:19:37;8.80;;;3.37;;
30247;SDS011;17063;50.892;4.702;2022-08-20T01:22:06;7.63;;;3.40;;
30247;SDS011;17063;50.892;4.702;2022-08-20T01:24:57;11.27;;;3.50;;
30247;SDS011;17063;50.892;4.702;2022-08-20T01:27:31;6.70;;;3.37;;
30247;SDS011;17063;50.892;4.702;2022-08-20T01:30:08;3.73;;;2.90;;
30247;SDS011;17063;50.892;4.702;2022-08-20T01:32:35;4.70;;;3.00;;
30247;SDS011;17063;50.892;4.702;2022-08-20T01:35:02;3.63;;;2.80;;
30247;SDS011;17063;50.892;4.702;2022-08-20T01:37:30;9.63;;;3.40;;
30247;SDS011;17063;50.892;4.702;2022-08-20T01:39:57;8.73;;;3.10;;
30247;SDS011;17063;50.892;4.702;2022-08-20T01:44:55;7.23;;;2.90;;
30247;SDS011;17063;50.892;4.702;2022-08-20T01:47:23;8.20;;;2.53;;
30247;SDS011;17063;50.892;4.702;2022-08-20T01:49:57;9.07;;;3.30;;
30247;SDS011;17063;50.892;4.702;2022-08-20T01:55:06;13.47;;;3.80;;
30247;SDS011;17063;50.892;4.702;2022-08-20T01:57:34;7.27;;;2.93;;
30247;SDS011;17063;50.892;4.702;2022-08-20T02:00:06;7.33;;;3.10;;
30247;SDS011;17063;50.892;4.702;2022-08-20T02:02:46;10.30;;;3.20;;
30247;SDS011;17063;50.892;4.702;2022-08-20T02:05:14;7.77;;;3.00;;
30247;SDS011;17063;50.892;4.702;2022-08-20T02:07:41;11.60;;;3.07;;
30247;SDS011;17063;50.892;4.702;2022-08-20T02:10:09;8.60;;;2.60;;
30247;SDS011;17063;50.892;4.702;2022-08-20T02:12:38;11.80;;;3.07;;
30247;SDS011;17063;50.892;4.702;2022-08-20T02:15:06;8.10;;;2.67;;
30247;SDS011;17063;50.892;4.702;2022-08-20T02:17:36;9.80;;;3.20;;
30247;SDS011;17063;50.892;4.702;2022-08-20T02:20:06;8.70;;;2.90;;
30247;SDS011;17063;50.892;4.702;2022-08-20T02:22:39;13.40;;;2.97;;
30247;SDS011;17063;50.892;4.702;2022-08-20T02:25:15;8.60;;;2.57;;
30247;SDS011;17063;50.892;4.702;2022-08-20T02:27:44;11.70;;;2.97;;
30247;SDS011;17063;50.892;4.702;2022-08-20T02:30:14;13.50;;;2.97;;
30247;SDS011;17063;50.892;4.702;2022-08-20T02:32:54;7.60;;;2.87;;
30247;SDS011;17063;50.892;4.702;2022-08-20T02:35:23;12.10;;;2.83;;
30247;SDS011;17063;50.892;4.702;2022-08-20T02:37:50;9.87;;;2.43;;
30247;SDS011;17063;50.892;4.702;2022-08-20T02:40:18;9.60;;;3.37;;
30247;SDS011;17063;50.892;4.702;2022-08-20T02:42:56;11.43;;;3.07;;
30247;SDS011;17063;50.892;4.702;2022-08-20T02:45:24;12.50;;;3.40;;
30247;SDS011;17063;50.892;4.702;2022-08-20T02:47:51;14.40;;;3.23;;
30247;SDS011;17063;50.892;4.702;2022-08-20T02:50:20;9.87;;;3.00;;
30247;SDS011;17063;50.892;4.702;2022-08-20T02:52:48;13.83;;;3.40;;
30247;SDS011;17063;50.892;4.702;2022-08-20T02:55:18;11.80;;;3.03;;
30247;SDS011;17063;50.892;4.702;2022-08-20T02:57:56;10.13;;;3.43;;
30247;SDS011;17063;50.892;4.702;2022-08-20T03:00:25;10.73;;;3.20;;
30247;SDS011;17063;50.892;4.702;2022-08-20T03:02:53;11.53;;;3.77;;
30247;SDS011;17063;50.892;4.702;2022-08-20T03:05:19;12.17;;;3.00;;
30247;SDS011;17063;50.892;4.702;2022-08-20T03:07:50;16.93;;;3.30;;
30247;SDS011;17063;50.892;4.702;2022-08-20T03:10:23;13.83;;;2.77;;
30247;SDS011;17063;50.892;4.702;2022-08-20T03:12:52;10.67;;;3.37;;
30247;SDS011;17063;50.892;4.702;2022-08-20T03:15:19;12.10;;;2.83;;
30247;SDS011;17063;50.892;4.702;2022-08-20T03:17:46;10.07;;;3.10;;
30247;SDS011;17063;50.892;4.702;2022-08-20T03:20:13;14.57;;;3.07;;
30247;SDS011;17063;50.892;4.702;2022-08-20T03:22:40;10.30;;;2.67;;
30247;SDS011;17063;50.892;4.702;2022-08-20T03:25:07;14.23;;;3.40;;
30247;SDS011;17063;50.892;4.702;2022-08-20T03:27:35;10.97;;;3.23;;
30247;SDS011;17063;50.892;4.702;2022-08-20T03:30:04;11.53;;;3.43;;
30247;SDS011;17063;50.892;4.702;2022-08-20T03:32:32;10.90;;;2.83;;
30247;SDS011;17063;50.892;4.702;2022-08-20T03:34:59;10.77;;;3.27;;
30247;SDS011;17063;50.892;4.702;2022-08-20T03:37:30;14.37;;;3.63;;
30247;SDS011;17063;50.892;4.702;2022-08-20T03:39:58;13.67;;;3.97;;
30247;SDS011;17063;50.892;4.702;2022-08-20T03:42:26;8.67;;;3.20;;
30247;SDS011;17063;50.892;4.702;2022-08-20T03:44:52;13.57;;;3.00;;
30247;SDS011;17063;50.892;4.702;2022-08-20T03:47:25;14.73;;;3.57;;
30247;SDS011;17063;50.892;4.702;2022-08-20T03:49:56;15.23;;;3.90;;
30247;SDS011;17063;50.892;4.702;2022-08-20T03:52:25;12.33;;;3.10;;
30247;SDS011;17063;50.892;4.702;2022-08-20T03:54:53;9.63;;;3.30;;
30247;SDS011;17063;50.892;4.702;2022-08-20T03:57:20;14.13;;;3.33;;
30247;SDS011;17063;50.892;4.702;2022-08-20T03:59:46;12.90;;;3.37;;
30247;SDS011;17063;50.892;4.702;2022-08-20T04:02:24;13.30;;;3.90;;
30247;SDS011;17063;50.892;4.702;2022-08-20T04:04:50;10.50;;;3.87;;
30247;SDS011;17063;50.892;4.702;2022-08-20T04:07:19;12.87;;;3.50;;
30247;SDS011;17063;50.892;4.702;2022-08-20T04:09:51;10.10;;;3.17;;
30247;SDS011;17063;50.892;4.702;2022-08-20T04:12:19;16.80;;;3.90;;
30247;SDS011;17063;50.892;4.702;2022-08-20T04:14:50;8.87;;;3.00;;
30247;SDS011;17063;50.892;4.702;2022-08-20T04:17:18;15.70;;;4.50;;
30247;SDS011;17063;50.892;4.702;2022-08-20T04:19:47;8.53;;;3.27;;
30247;SDS011;17063;50.892;4.702;2022-08-20T04:22:14;19.13;;;3.80;;
30247;SDS011;17063;50.892;4.702;2022-08-20T04:24:41;10.37;;;4.10;;
30247;SDS011;17063;50.892;4.702;2022-08-20T04:27:09;10.80;;;3.60;;
30247;SDS011;17063;50.892;4.702;2022-08-20T04:29:39;11.57;;;3.50;;
30247;SDS011;17063;50.892;4.702;2022-08-20T04:32:08;10.57;;;3.50;;
30247;SDS011;17063;50.892;4.702;2022-08-20T04:34:35;7.97;;;3.13;;
30247;SDS011;17063;50.892;4.702;2022-08-20T04:37:02;10.70;;;3.60;;
30247;SDS011;17063;50.892;4.702;2022-08-20T04:39:29;18.53;;;4.83;;
30247;SDS011;17063;50.892;4.702;2022-08-20T04:41:56;13.80;;;4.83;;
30247;SDS011;17063;50.892;4.702;2022-08-20T04:44:23;10.47;;;3.67;;
30247;SDS011;17063;50.892;4.702;2022-08-20T04:46:50;13.93;;;3.87;;
30247;SDS011;17063;50.892;4.702;2022-08-20T04:49:17;15.57;;;5.13;;
30247;SDS011;17063;50.892;4.702;2022-08-20T04:51:51;12.20;;;4.60;;
30247;SDS011;17063;50.892;4.702;2022-08-20T04:54:20;12.10;;;4.00;;
30247;SDS011;17063;50.892;4.702;2022-08-20T04:56:47;15.40;;;4.53;;
30247;SDS011;17063;50.892;4.702;2022-08-20T04:59:14;13.17;;;4.23;;
30247;SDS011;17063;50.892;4.702;2022-08-20T05:01:41;16.90;;;4.37;;
30247;SDS011;17063;50.892;4.702;2022-08-20T05:04:08;16.23;;;4.77;;
30247;SDS011;17063;50.892;4.702;2022-08-20T05:06:34;21.50;;;4.43;;
30247;SDS011;17063;50.892;4.702;2022-08-20T05:09:01;13.90;;;5.30;;
30247;SDS011;17063;50.892;4.702;2022-08-20T05:11:28;15.47;;;5.17;;
30247;SDS011;17063;50.892;4.702;2022-08-20T05:14:04;14.97;;;5.10;;
30247;SDS011;17063;50.892;4.702;2022-08-20T05:16:35;13.73;;;4.53;;
30247;SDS011;17063;50.892;4.702;2022-08-20T05:19:04;16.77;;;5.17;;
30247;SDS011;17063;50.892;4.702;2022-08-20T05:21:32;12.13;;;5.17;;
30247;SDS011;17063;50.892;4.702;2022-08-20T05:23:59;15.93;;;4.63;;
30247;SDS011;17063;50.892;4.702;2022-08-20T05:26:26;12.97;;;5.07;;
30247;SDS011;17063;50.892;4.702;2022-08-20T05:28:53;14.63;;;4.70;;
30247;SDS011;17063;50.892;4.702;2022-08-20T05:31:25;13.87;;;5.60;;
30247;SDS011;17063;50.892;4.702;2022-08-20T05:34:02;16.73;;;5.60;;
30247;SDS011;17063;50.892;4.702;2022-08-20T05:36:38;16.30;;;5.37;;
30247;SDS011;17063;50.892;4.702;2022-08-20T05:39:13;18.23;;;4.57;;
30247;SDS011;17063;50.892;4.702;2022-08-20T05:41:41;23.13;;;4.90;;
30247;SDS011;17063;50.892;4.702;2022-08-20T05:44:08;18.87;;;5.20;;
30247;SDS011;17063;50.892;4.702;2022-08-20T05:46:39;19.23;;;5.20;;
30247;SDS011;17063;50.892;4.702;2022-08-20T05:49:08;12.63;;;4.57;;
30247;SDS011;17063;50.892;4.702;2022-08-20T05:51:37;12.43;;;4.90;;
30247;SDS011;17063;50.892;4.702;2022-08-20T05:54:06;15.23;;;4.70;;
30247;SDS011;17063;50.892;4.702;2022-08-20T05:56:36;16.63;;;4.90;;
30247;SDS011;17063;50.892;4.702;2022-08-20T05:59:06;16.87;;;5.10;;
30247;SDS011;17063;50.892;4.702;2022-08-20T06:01:34;18.07;;;5.40;;
30247;SDS011;17063;50.892;4.702;2022-08-20T06:04:02;21.33;;;5.50;;
30247;SDS011;17063;50.892;4.702;2022-08-20T06:06:49;12.93;;;5.17;;
30247;SDS011;17063;50.892;4.702;2022-08-20T06:09:18;17.87;;;4.73;;
30247;SDS011;17063;50.892;4.702;2022-08-20T06:12:01;13.03;;;4.53;;
30247;SDS011;17063;50.892;4.702;2022-08-20T06:14:30;15.40;;;4.60;;
30247;SDS011;17063;50.892;4.702;2022-08-20T06:17:02;17.87;;;5.50;;
30247;SDS011;17063;50.892;4.702;2022-08-20T06:19:34;16.63;;;5.03;;
30247;SDS011;17063;50.892;4.702;2022-08-20T06:22:02;24.03;;;5.17;;
30247;SDS011;17063;50.892;4.702;2022-08-20T06:24:43;17.53;;;4.90;;
30247;SDS011;17063;50.892;4.702;2022-08-20T06:27:11;16.27;;;4.77;;
30247;SDS011;17063;50.892;4.702;2022-08-20T06:29:40;17.73;;;5.13;;
30247;SDS011;17063;50.892;4.702;2022-08-20T06:32:07;14.87;;;5.13;;
30247;SDS011;17063;50.892;4.702;2022-08-20T06:34:34;17.53;;;5.03;;
30247;SDS011;17063;50.892;4.702;2022-08-20T06:37:00;19.13;;;5.83;;
30247;SDS011;17063;50.892;4.702;2022-08-20T06:39:30;14.93;;;4.83;;
30247;SDS011;17063;50.892;4.702;2022-08-20T06:41:57;15.73;;;5.00;;
30247;SDS011;17063;50.892;4.702;2022-08-20T06:44:24;18.13;;;5.13;;
30247;SDS011;17063;50.892;4.702;2022-08-20T06:46:51;22.17;;;5.57;;
30247;SDS011;17063;50.892;4.702;2022-08-20T06:49:18;19.13;;;5.60;;
30247;SDS011;17063;50.892;4.702;2022-08-20T06:51:45;21.67;;;5.47;;
30247;SDS011;17063;50.892;4.702;2022-08-20T06:54:17;16.27;;;5.20;;
30247;SDS011;17063;50.892;4.702;2022-08-20T06:56:43;18.27;;;5.60;;
30247;SDS011;17063;50.892;4.702;2022-08-20T06:59:10;18.10;;;6.60;;
30247;SDS011;17063;50.892;4.702;2022-08-20T07:01:37;18.57;;;6.00;;
30247;SDS011;17063;50.892;4.702;2022-08-20T07:04:04;21.47;;;6.13;;
30247;SDS011;17063;50.892;4.702;2022-08-20T07:06:33;17.60;;;5.90;;
30247;SDS011;17063;50.892;4.702;2022-08-20T07:08:59;21.43;;;6.23;;
30247;SDS011;17063;50.892;4.702;2022-08-20T07:11:26;24.83;;;6.87;;
30247;SDS011;17063;50.892;4.702;2022-08-20T07:13:55;24.20;;;6.40;;
30247;SDS011;17063;50.892;4.702;2022-08-20T07:16:22;24.20;;;6.33;;
30247;SDS011;17063;50.892;4.702;2022-08-20T07:18:49;22.70;;;6.17;;
30247;SDS011;17063;50.892;4.702;2022-08-20T07:21:16;20.90;;;5.93;;
30247;SDS011;17063;50.892;4.702;2022-08-20T07:23:43;27.00;;;7.73;;
30247;SDS011;17063;50.892;4.702;2022-08-20T07:26:10;30.93;;;8.33;;
30247;SDS011;17063;50.892;4.702;2022-08-20T07:28:39;20.60;;;6.00;;
30247;SDS011;17063;50.892;4.702;2022-08-20T07:31:06;26.13;;;6.20;;
30247;SDS011;17063;50.892;4.702;2022-08-20T07:33:52;26.50;;;7.20;;
30247;SDS011;17063;50.892;4.702;2022-08-20T07:36:20;27.17;;;6.57;;
30247;SDS011;17063;50.892;4.702;2022-08-20T07:38:47;21.60;;;6.57;;
30247;SDS011;17063;50.892;4.702;2022-08-20T07:41:16;23.27;;;7.30;;
30247;SDS011;17063;50.892;4.702;2022-08-20T07:43:44;33.63;;;7.07;;
30247;SDS011;17063;50.892;4.702;2022-08-20T07:46:13;26.20;;;7.23;;
30247;SDS011;17063;50.892;4.702;2022-08-20T07:48:46;23.03;;;7.03;;
30247;SDS011;17063;50.892;4.702;2022-08-20T07:51:22;29.63;;;7.57;;
30247;SDS011;17063;50.892;4.702;2022-08-20T07:53:49;24.50;;;7.13;;
30247;SDS011;17063;50.892;4.702;2022-08-20T07:56:19;22.53;;;6.17;;
30247;SDS011;17063;50.892;4.702;2022-08-20T07:58:51;22.80;;;7.07;;
30247;SDS011;17063;50.892;4.702;2022-08-20T08:01:21;28.20;;;8.50;;
30247;SDS011;17063;50.892;4.702;2022-08-20T08:03:51;25.03;;;7.40;;
30247;SDS011;17063;50.892;4.702;2022-08-20T08:06:19;25.50;;;7.57;;
30247;SDS011;17063;50.892;4.702;2022-08-20T08:09:07;22.53;;;7.53;;
30247;SDS011;17063;50.892;4.702;2022-08-20T08:11:37;22.37;;;6.70;;
30247;SDS011;17063;50.892;4.702;2022-08-20T08:14:12;20.63;;;6.57;;
30247;SDS011;17063;50.892;4.702;2022-08-20T08:16:40;19.57;;;6.77;;
30247;SDS011;17063;50.892;4.702;2022-08-20T08:19:11;24.57;;;7.73;;
30247;SDS011;17063;50.892;4.702;2022-08-20T08:21:41;18.30;;;8.67;;
30247;SDS011;17063;50.892;4.702;2022-08-20T08:24:09;24.77;;;10.20;;
30247;SDS011;17063;50.892;4.702;2022-08-20T08:26:39;22.00;;;9.43;;
30247;SDS011;17063;50.892;4.702;2022-08-20T08:29:06;30.37;;;10.13;;
30247;SDS011;17063;50.892;4.702;2022-08-20T08:31:33;24.63;;;10.07;;
30247;SDS011;17063;50.892;4.702;2022-08-20T08:34:00;18.97;;;8.80;;
30247;SDS011;17063;50.892;4.702;2022-08-20T08:36:27;19.67;;;8.73;;
30247;SDS011;17063;50.892;4.702;2022-08-20T08:38:55;18.93;;;9.07;;
30247;SDS011;17063;50.892;4.702;2022-08-20T08:41:29;17.23;;;7.97;;
30247;SDS011;17063;50.892;4.702;2022-08-20T08:44:07;19.10;;;7.93;;
30247;SDS011;17063;50.892;4.702;2022-08-20T08:46:40;16.37;;;8.27;;
30247;SDS011;17063;50.892;4.702;2022-08-20T08:49:11;17.07;;;7.83;;
30247;SDS011;17063;50.892;4.702;2022-08-20T08:51:45;14.90;;;6.97;;
30247;SDS011;17063;50.892;4.702;2022-08-20T08:54:15;21.90;;;7.90;;
30247;SDS011;17063;50.892;4.702;2022-08-20T08:56:50;15.67;;;8.00;;
30247;SDS011;17063;50.892;4.702;2022-08-20T08:59:18;17.73;;;6.47;;
30247;SDS011;17063;50.892;4.702;2022-08-20T09:01:51;12.20;;;5.20;;
30247;SDS011;17063;50.892;4.702;2022-08-20T09:04:26;10.77;;;4.97;;
30247;SDS011;17063;50.892;4.702;2022-08-20T09:06:57;12.73;;;4.47;;
30247;SDS011;17063;50.892;4.702;2022-08-20T09:09:26;16.87;;;4.77;;
30247;SDS011;17063;50.892;4.702;2022-08-20T09:11:56;15.03;;;5.13;;
30247;SDS011;17063;50.892;4.702;2022-08-20T09:14:28;8.80;;;3.67;;
30247;SDS011;17063;50.892;4.702;2022-08-20T09:16:55;10.43;;;4.10;;
30247;SDS011;17063;50.892;4.702;2022-08-20T09:19:22;8.53;;;3.50;;
30247;SDS011;17063;50.892;4.702;2022-08-20T09:21:49;14.33;;;3.93;;
30247;SDS011;17063;50.892;4.702;2022-08-20T09:24:16;14.90;;;3.53;;
30247;SDS011;17063;50.892;4.702;2022-08-20T09:26:43;9.63;;;3.10;;
30247;SDS011;17063;50.892;4.702;2022-08-20T09:29:10;11.27;;;3.57;;
30247;SDS011;17063;50.892;4.702;2022-08-20T09:31:37;11.97;;;3.33;;
30247;SDS011;17063;50.892;4.702;2022-08-20T09:34:04;9.07;;;2.70;;
30247;SDS011;17063;50.892;4.702;2022-08-20T09:36:31;11.60;;;3.07;;
30247;SDS011;17063;50.892;4.702;2022-08-20T09:38:58;11.00;;;2.53;;
30247;SDS011;17063;50.892;4.702;2022-08-20T09:41:28;8.87;;;2.37;;
30247;SDS011;17063;50.892;4.702;2022-08-20T09:43:57;7.53;;;2.10;;
30247;SDS011;17063;50.892;4.702;2022-08-20T09:46:24;8.97;;;2.23;;
30247;SDS011;17063;50.892;4.702;2022-08-20T09:48:53;9.90;;;2.50;;
30247;SDS011;17063;50.892;4.702;2022-08-20T09:51:20;5.07;;;2.17;;
30247;SDS011;17063;50.892;4.702;2022-08-20T09:53:48;7.97;;;1.90;;
30247;SDS011;17063;50.892;4.702;2022-08-20T09:56:18;8.03;;;2.50;;
30247;SDS011;17063;50.892;4.702;2022-08-20T09:58:46;7.70;;;1.90;;
30247;SDS011;17063;50.892;4.702;2022-08-20T10:01:16;10.97;;;2.40;;
30247;SDS011;17063;50.892;4.702;2022-08-20T10:03:44;4.80;;;2.17;;
30247;SDS011;17063;50.892;4.702;2022-08-20T10:06:14;9.67;;;2.27;;
30247;SDS011;17063;50.892;4.702;2022-08-20T10:08:43;4.20;;;1.90;;
30247;SDS011;17063;50.892;4.702;2022-08-20T10:11:10;7.10;;;2.23;;
30247;SDS011;17063;50.892;4.702;2022-08-20T10:13:47;7.57;;;2.23;;
30247;SDS011;17063;50.892;4.702;2022-08-20T10:16:15;8.13;;;2.10;;
30247;SDS011;17063;50.892;4.702;2022-08-20T10:18:42;6.77;;;2.03;;
30247;SDS011;17063;50.892;4.702;2022-08-20T10:21:09;7.10;;;2.37;;
30247;SDS011;17063;50.892;4.702;2022-08-20T10:23:37;12.17;;;2.50;;
30247;SDS011;17063;50.892;4.702;2022-08-20T10:26:05;7.40;;;2.50;;
30247;SDS011;17063;50.892;4.702;2022-08-20T10:28:33;8.30;;;2.10;;
30247;SDS011;17063;50.892;4.702;2022-08-20T10:31:00;6.53;;;1.80;;
30247;SDS011;17063;50.892;4.702;2022-08-20T10:33:26;7.30;;;1.97;;
30247;SDS011;17063;50.892;4.702;2022-08-20T10:35:54;14.17;;;2.03;;
30247;SDS011;17063;50.892;4.702;2022-08-20T10:38:25;7.07;;;1.80;;
30247;SDS011;17063;50.892;4.702;2022-08-20T10:40:52;8.37;;;1.80;;
30247;SDS011;17063;50.892;4.702;2022-08-20T10:43:19;8.77;;;1.97;;
30247;SDS011;17063;50.892;4.702;2022-08-20T10:45:46;8.73;;;2.60;;
30247;SDS011;17063;50.892;4.702;2022-08-20T10:48:13;7.73;;;2.03;;
30247;SDS011;17063;50.892;4.702;2022-08-20T10:50:46;7.90;;;2.00;;
30247;SDS011;17063;50.892;4.702;2022-08-20T10:53:14;10.47;;;2.20;;
30247;SDS011;17063;50.892;4.702;2022-08-20T10:55:41;8.73;;;1.93;;
30247;SDS011;17063;50.892;4.702;2022-08-20T10:58:08;9.00;;;2.20;;
30247;SDS011;17063;50.892;4.702;2022-08-20T11:00:36;9.40;;;1.97;;
30247;SDS011;17063;50.892;4.702;2022-08-20T11:03:04;8.20;;;2.30;;
30247;SDS011;17063;50.892;4.702;2022-08-20T11:05:31;10.23;;;2.60;;
30247;SDS011;17063;50.892;4.702;2022-08-20T11:07:57;8.23;;;2.33;;
30247;SDS011;17063;50.892;4.702;2022-08-20T11:10:28;8.47;;;2.00;;
30247;SDS011;17063;50.892;4.702;2022-08-20T11:12:58;7.93;;;2.23;;
30247;SDS011;17063;50.892;4.702;2022-08-20T11:15:26;9.83;;;2.33;;
30247;SDS011;17063;50.892;4.702;2022-08-20T11:17:53;6.47;;;1.73;;
30247;SDS011;17063;50.892;4.702;2022-08-20T11:20:21;11.17;;;2.50;;
30247;SDS011;17063;50.892;4.702;2022-08-20T11:22:52;6.07;;;1.80;;
30247;SDS011;17063;50.892;4.702;2022-08-20T11:25:19;8.43;;;2.27;;
30247;SDS011;17063;50.892;4.702;2022-08-20T11:27:47;7.27;;;1.80;;
30247;SDS011;17063;50.892;4.702;2022-08-20T11:30:19;8.20;;;1.90;;
30247;SDS011;17063;50.892;4.702;2022-08-20T11:32:52;11.07;;;2.40;;
30247;SDS011;17063;50.892;4.702;2022-08-20T11:35:19;10.93;;;1.90;;
30247;SDS011;17063;50.892;4.702;2022-08-20T11:38:11;10.17;;;2.27;;
30247;SDS011;17063;50.892;4.702;2022-08-20T11:40:39;7.10;;;2.23;;
30247;SDS011;17063;50.892;4.702;2022-08-20T11:43:07;4.17;;;1.80;;
30247;SDS011;17063;50.892;4.702;2022-08-20T11:45:44;9.53;;;2.40;;
30247;SDS011;17063;50.892;4.702;2022-08-20T11:48:12;11.30;;;2.50;;
30247;SDS011;17063;50.892;4.702;2022-08-20T11:50:41;8.77;;;2.20;;
30247;SDS011;17063;50.892;4.702;2022-08-20T11:53:08;12.03;;;2.47;;
30247;SDS011;17063;50.892;4.702;2022-08-20T11:55:35;5.97;;;1.77;;
30247;SDS011;17063;50.892;4.702;2022-08-20T11:58:08;8.57;;;2.17;;
30247;SDS011;17063;50.892;4.702;2022-08-20T12:00:35;7.67;;;2.43;;
30247;SDS011;17063;50.892;4.702;2022-08-20T12:03:03;8.50;;;2.17;;
30247;SDS011;17063;50.892;4.702;2022-08-20T12:05:39;9.57;;;2.90;;
30247;SDS011;17063;50.892;4.702;2022-08-20T12:08:08;6.43;;;2.30;;
30247;SDS011;17063;50.892;4.702;2022-08-20T12:10:52;9.67;;;2.00;;
30247;SDS011;17063;50.892;4.702;2022-08-20T12:13:19;8.20;;;2.27;;
30247;SDS011;17063;50.892;4.702;2022-08-20T12:15:55;6.67;;;2.27;;
30247;SDS011;17063;50.892;4.702;2022-08-20T12:18:22;8.13;;;2.23;;
30247;SDS011;17063;50.892;4.702;2022-08-20T12:20:52;6.23;;;2.03;;
30247;SDS011;17063;50.892;4.702;2022-08-20T12:23:19;6.80;;;2.37;;
30247;SDS011;17063;50.892;4.702;2022-08-20T12:25:46;5.63;;;2.50;;
30247;SDS011;17063;50.892;4.702;2022-08-20T12:28:13;6.37;;;2.03;;
30247;SDS011;17063;50.892;4.702;2022-08-20T12:30:40;5.63;;;1.73;;
30247;SDS011;17063;50.892;4.702;2022-08-20T12:33:07;12.27;;;2.07;;
30247;SDS011;17063;50.892;4.702;2022-08-20T12:35:34;8.37;;;2.77;;
30247;SDS011;17063;50.892;4.702;2022-08-20T12:38:05;10.50;;;2.73;;
30247;SDS011;17063;50.892;4.702;2022-08-20T12:40:32;8.30;;;2.43;;
30247;SDS011;17063;50.892;4.702;2022-08-20T12:43:00;10.87;;;2.27;;
30247;SDS011;17063;50.892;4.702;2022-08-20T12:45:27;10.20;;;2.40;;
30247;SDS011;17063;50.892;4.702;2022-08-20T12:47:59;8.50;;;2.40;;
30247;SDS011;17063;50.892;4.702;2022-08-20T12:50:33;6.73;;;1.83;;
30247;SDS011;17063;50.892;4.702;2022-08-20T12:53:01;10.07;;;2.27;;
30247;SDS011;17063;50.892;4.702;2022-08-20T12:55:29;7.33;;;2.13;;
30247;SDS011;17063;50.892;4.702;2022-08-20T12:57:58;9.27;;;2.30;;
30247;SDS011;17063;50.892;4.702;2022-08-20T13:00:31;7.87;;;2.47;;
30247;SDS011;17063;50.892;4.702;2022-08-20T13:03:01;9.00;;;2.20;;
30247;SDS011;17063;50.892;4.702;2022-08-20T13:05:30;11.70;;;2.80;;
30247;SDS011;17063;50.892;4.702;2022-08-20T13:07:57;13.00;;;2.13;;
30247;SDS011;17063;50.892;4.702;2022-08-20T13:12:56;8.63;;;2.13;;
30247;SDS011;17063;50.892;4.702;2022-08-20T13:15:24;6.03;;;2.20;;
30247;SDS011;17063;50.892;4.702;2022-08-20T13:17:52;7.40;;;1.93;;
30247;SDS011;17063;50.892;4.702;2022-08-20T13:20:20;8.67;;;2.00;;
30247;SDS011;17063;50.892;4.702;2022-08-20T13:22:56;6.77;;;2.20;;
30247;SDS011;17063;50.892;4.702;2022-08-20T13:25:23;5.20;;;2.00;;
30247;SDS011;17063;50.892;4.702;2022-08-20T13:27:57;7.97;;;2.37;;
30247;SDS011;17063;50.892;4.702;2022-08-20T13:30:27;6.90;;;2.10;;
30247;SDS011;17063;50.892;4.702;2022-08-20T13:32:54;9.93;;;2.27;;
30247;SDS011;17063;50.892;4.702;2022-08-20T13:35:22;8.43;;;2.43;;
30247;SDS011;17063;50.892;4.702;2022-08-20T13:37:49;8.53;;;1.57;;
30247;SDS011;17063;50.892;4.702;2022-08-20T13:40:16;4.30;;;1.80;;
30247;SDS011;17063;50.892;4.702;2022-08-20T13:42:43;5.43;;;1.80;;
30247;SDS011;17063;50.892;4.702;2022-08-20T13:45:10;7.57;;;1.80;;
30247;SDS011;17063;50.892;4.702;2022-08-20T13:47:38;6.57;;;1.70;;
30247;SDS011;17063;50.892;4.702;2022-08-20T13:50:11;5.83;;;1.80;;
30247;SDS011;17063;50.892;4.702;2022-08-20T13:55:56;5.63;;;1.90;;
30247;SDS011;17063;50.892;4.702;2022-08-20T13:58:23;4.47;;;2.03;;
30247;SDS011;17063;50.892;4.702;2022-08-20T14:00:50;5.13;;;1.53;;
30247;SDS011;17063;50.892;4.702;2022-08-20T14:03:17;4.57;;;1.80;;
30247;SDS011;17063;50.892;4.702;2022-08-20T14:05:50;3.37;;;1.47;;
30247;SDS011;17063;50.892;4.702;2022-08-20T14:08:19;4.90;;;1.60;;
30247;SDS011;17063;50.892;4.702;2022-08-20T14:10:47;5.03;;;1.57;;
30247;SDS011;17063;50.892;4.702;2022-08-20T14:13:18;5.70;;;1.47;;
30247;SDS011;17063;50.892;4.702;2022-08-20T14:15:45;4.07;;;1.70;;
30247;SDS011;17063;50.892;4.702;2022-08-20T14:18:13;3.40;;;1.83;;
30247;SDS011;17063;50.892;4.702;2022-08-20T14:20:40;4.70;;;1.70;;
30247;SDS011;17063;50.892;4.702;2022-08-20T14:23:10;3.00;;;1.50;;
30247;SDS011;17063;50.892;4.702;2022-08-20T14:25:37;4.50;;;1.70;;
30247;SDS011;17063;50.892;4.702;2022-08-20T14:28:11;3.33;;;1.80;;
30247;SDS011;17063;50.892;4.702;2022-08-20T14:30:44;5.47;;;1.77;;
30247;SDS011;17063;50.892;4.702;2022-08-20T14:33:18;4.23;;;1.70;;
30247;SDS011;17063;50.892;4.702;2022-08-20T14:35:45;5.27;;;1.57;;
30247;SDS011;17063;50.892;4.702;2022-08-20T14:38:12;5.03;;;1.50;;
30247;SDS011;17063;50.892;4.702;2022-08-20T14:40:39;3.67;;;1.50;;
30247;SDS011;17063;50.892;4.702;2022-08-20T14:43:06;7.73;;;1.70;;
30247;SDS011;17063;50.892;4.702;2022-08-20T14:45:33;3.30;;;1.43;;
30247;SDS011;17063;50.892;4.702;2022-08-20T14:48:02;3.43;;;1.63;;
30247;SDS011;17063;50.892;4.702;2022-08-20T14:50:33;4.23;;;1.53;;
30247;SDS011;17063;50.892;4.702;2022-08-20T14:53:00;5.63;;;1.93;;
30247;SDS011;17063;50.892;4.702;2022-08-20T14:55:30;5.90;;;1.80;;
30247;SDS011;17063;50.892;4.702;2022-08-20T14:57:58;3.53;;;1.40;;
30247;SDS011;17063;50.892;4.702;2022-08-20T15:00:27;4.70;;;2.07;;
30247;SDS011;17063;50.892;4.702;2022-08-20T15:02:55;4.03;;;1.37;;
30247;SDS011;17063;50.892;4.702;2022-08-20T15:05:22;3.27;;;1.67;;
30247;SDS011;17063;50.892;4.702;2022-08-20T15:07:49;4.37;;;1.43;;